KGCK/GCK METAR and TAF weather

Enter ICAO airport designator
Station Type Date Time Source
KGCK METAR 2019/10/18 10:54 UTC NOAA

KGCK 181054Z AUTO 20017G26KT 10SM CLR 14/06 A2960 RMK AO2 PK WND 20027/1031 SLP995 T01390056


Station Type Date Time Source
KGCK Decoded METAR 2019/10/18 10:54 UTC NOAA

GARDEN CITY REGIONAL AIRPORT, KS, United States (KGCK) 37-55N 100-43W 877M
Oct 18, 2019 - 06:54 AM EDT / 2019.10.18 1054 UTC
Wind: from the SSW (200 degrees) at 20 MPH (17 KT) gusting to 30 MPH (26 KT):0
Visibility: 10 mile(s):0
Sky conditions: clear
Temperature: 57.0 F (13.9 C)
Dew Point: 42.1 F (5.6 C)
Relative Humidity: 57%
Pressure (altimeter): 29.6 in. Hg (1002 hPa)
ob: KGCK 181054Z AUTO 20017G26KT 10SM CLR 14/06 A2960 RMK AO2 PK WND 20027/1031 SLP995 T01390056
cycle: 11

Station Type Date Time Source
KGCK TAF 2019/10/18 12:22 UTC NOAA

TAF KGCK 181120Z 1812/1912 20015G24KT P6SM SKC
FM182000 23013G21KT P6SM FEW250
FM190000 35027G38KT P6SM VCSH SCT120
FM190400 36015G22KT P6SM SCT200
FM190700 33009KT P6SM FEW250

Example: see airport list